Time;durP1;ratioP1;P1;durP2;ratioP2;P2;SDS_P1;SDS_P2;PMS_P1;PMS_P2;Temp;Humidity;BMP_temperature;BMP_pressure;BME280_temperature;BME280_humidity;BME280_pressure;Samples;Min_cycle;Max_cycle;Signal;HPM_P1;HPM_P2
2024/02/19 00:01:29;;;;;;;18.83;10.02;;;;;;;6.89;100.00;101225.00;5026567;28;20029;-79
2024/02/19 00:03:54;;;;;;;19.13;11.05;;;;;;;7.00;100.00;101211.41;5026423;28;20048;-78
2024/02/19 00:06:21;;;;;;;20.88;10.13;;;;;;;6.97;100.00;101238.28;5026652;28;20756;-78
2024/02/19 00:08:47;;;;;;;19.50;10.73;;;;;;;6.96;100.00;101244.56;5027312;28;20033;-79
2024/02/19 00:11:13;;;;;;;21.23;10.73;;;;;;;6.95;100.00;101245.56;5029071;28;20486;-78
2024/02/19 00:13:39;;;;;;;22.25;12.10;;;;;;;6.77;100.00;101222.69;5030437;28;20089;-80
2024/02/19 00:16:04;;;;;;;19.48;10.55;;;;;;;6.82;100.00;101252.19;5030075;28;20526;-79
2024/02/19 00:18:30;;;;;;;19.85;9.52;;;;;;;6.75;100.00;101218.53;5028913;28;20033;-79
2024/02/19 00:20:55;;;;;;;19.75;10.52;;;;;;;6.82;100.00;101217.72;5030023;28;20063;-78
2024/02/19 00:23:20;;;;;;;19.10;10.23;;;;;;;7.07;100.00;101230.97;5030470;28;20375;-78
2024/02/19 00:25:46;;;;;;;22.63;11.57;;;;;;;6.89;100.00;101240.91;5030188;28;20021;-79
2024/02/19 00:28:12;;;;;;;18.75;10.50;;;;;;;6.63;100.00;101234.75;5030476;28;20029;-78
2024/02/19 00:30:38;;;;;;;18.27;9.70;;;;;;;6.46;100.00;101203.94;5029980;28;20117;-79
2024/02/19 00:33:04;;;;;;;21.70;10.88;;;;;;;6.50;100.00;101215.03;5030077;28;20029;-79
2024/02/19 00:35:30;;;;;;;22.33;11.52;;;;;;;6.54;100.00;101232.25;5029977;28;20029;-79
2024/02/19 00:37:55;;;;;;;21.50;11.70;;;;;;;6.77;100.00;101243.88;5029905;28;20021;-79
2024/02/19 00:40:20;;;;;;;22.80;12.48;;;;;;;6.55;100.00;101207.41;5030045;28;20472;-80
2024/02/19 00:42:46;;;;;;;24.98;11.85;;;;;;;6.74;100.00;101238.06;5029749;28;20026;-80
2024/02/19 00:45:14;;;;;;;21.40;11.48;;;;;;;6.76;100.00;101241.41;5028076;28;20033;-79
2024/02/19 00:47:39;;;;;;;20.70;10.98;;;;;;;6.93;100.00;101252.84;5030992;28;20503;-79
2024/02/19 00:50:05;;;;;;;20.88;11.45;;;;;;;6.66;100.00;101241.56;5029695;28;20041;-80
2024/02/19 00:52:30;;;;;;;20.35;11.63;;;;;;;6.78;100.00;101239.41;5029835;28;20035;-80
2024/02/19 00:54:57;;;;;;;23.00;12.85;;;;;;;6.65;100.00;101226.66;5028463;28;20128;-80
2024/02/19 00:57:23;;;;;;;19.05;10.50;;;;;;;6.32;100.00;101196.63;5032461;28;20033;-80
2024/02/19 00:59:49;;;;;;;22.15;12.38;;;;;;;6.61;100.00;101209.41;5029440;28;20055;-80
2024/02/19 01:02:14;;;;;;;24.23;11.90;;;;;;;6.53;100.00;101201.47;5029671;28;20026;-80
2024/02/19 01:04:40;;;;;;;28.92;12.63;;;;;;;6.36;100.00;101177.59;5029304;28;20037;-80
2024/02/19 01:07:05;;;;;;;20.85;11.20;;;;;;;6.38;100.00;101194.16;5029458;28;20025;-80
2024/02/19 01:09:30;;;;;;;23.10;11.32;;;;;;;6.46;100.00;101214.53;5041538;28;20036;-79
2024/02/19 01:11:56;;;;;;;22.95;11.98;;;;;;;6.50;100.00;101194.66;5049016;28;20051;-79
2024/02/19 01:14:21;;;;;;;22.60;12.10;;;;;;;6.57;100.00;101200.13;5048026;28;20044;-80
2024/02/19 01:16:47;;;;;;;22.05;12.07;;;;;;;6.46;100.00;101226.94;5048683;28;20106;-79
2024/02/19 01:19:12;;;;;;;25.17;12.48;;;;;;;6.20;100.00;101198.75;5030517;28;20021;-79
2024/02/19 01:21:39;;;;;;;22.48;11.43;;;;;;;6.16;100.00;101192.94;5028358;28;20056;-79
2024/02/19 01:24:04;;;;;;;28.35;13.75;;;;;;;6.29;100.00;101197.78;5029323;28;20026;-79
2024/02/19 01:26:30;;;;;;;22.48;13.18;;;;;;;6.25;100.00;101196.44;5029151;28;20051;-79
2024/02/19 01:28:55;;;;;;;22.88;12.25;;;;;;;6.32;100.00;101192.16;5029004;28;20088;-80
2024/02/19 01:31:21;;;;;;;24.65;11.80;;;;;;;6.20;100.00;101202.22;5028874;28;20065;-80
2024/02/19 01:33:46;;;;;;;22.75;11.75;;;;;;;6.36;100.00;101193.50;5029033;28;20037;-80
2024/02/19 01:36:12;;;;;;;23.17;11.77;;;;;;;6.63;100.00;101216.19;5028987;28;20258;-81
2024/02/19 01:38:38;;;;;;;23.67;12.70;;;;;;;6.55;100.00;101196.81;5037326;28;20029;-80
2024/02/19 01:41:03;;;;;;;23.30;12.27;;;;;;;6.39;100.00;101193.16;5028923;28;20950;-80
2024/02/19 01:43:29;;;;;;;23.95;12.45;;;;;;;6.34;100.00;101182.22;5028475;28;20029;-79
2024/02/19 01:45:55;;;;;;;23.15;12.18;;;;;;;6.30;100.00;101199.44;5028869;28;20470;-79
2024/02/19 01:48:21;;;;;;;24.05;11.57;;;;;;;6.11;100.00;101179.38;5038604;28;20108;-79
2024/02/19 01:50:48;;;;;;;23.45;11.85;;;;;;;6.29;100.00;101213.66;5047953;28;20115;-79
2024/02/19 01:53:16;;;;;;;31.83;13.15;;;;;;;6.12;100.00;101188.97;5048437;28;20025;-79
2024/02/19 01:55:42;;;;;;;24.50;12.90;;;;;;;6.25;100.00;101175.25;5048560;28;20035;-80
2024/02/19 01:58:10;;;;;;;23.80;11.95;;;;;;;6.26;100.00;101200.75;5044250;28;20108;-79
2024/02/19 02:00:36;;;;;;;;;;;;;;;6.37;100.00;101199.59;5047590;28;20033;-80
2024/02/19 02:03:02;;;;;;;25.80;12.23;;;;;;;6.02;100.00;101175.03;5047377;28;19935;-80
2024/02/19 02:05:28;;;;;;;25.63;11.93;;;;;;;6.13;100.00;101181.84;5048260;28;20816;-79
2024/02/19 02:07:53;;;;;;;23.13;12.43;;;;;;;6.16;100.00;101186.84;5042538;28;20017;-79
2024/02/19 02:10:19;;;;;;;21.10;10.68;;;;;;;6.04;100.00;101184.47;5027997;28;20037;-79
2024/02/19 02:12:45;;;;;;;23.13;10.88;;;;;;;6.04;100.00;101205.66;5028360;28;20025;-80
2024/02/19 02:15:11;;;;;;;20.83;10.65;;;;;;;6.13;100.00;101208.31;5026470;28;20140;-79
2024/02/19 02:17:36;;;;;;;23.67;11.80;;;;;;;5.90;100.00;101158.59;5029326;28;20780;-79
2024/02/19 02:20:04;;;;;;;24.38;12.65;;;;;;;6.24;100.00;101195.63;5037989;28;20098;-79
2024/02/19 02:22:29;;;;;;;21.23;10.65;;;;;;;6.37;100.00;101205.72;5028257;28;20022;-80
2024/02/19 02:24:55;;;;;;;21.73;11.82;;;;;;;6.29;100.00;101186.34;5027818;28;20522;-80
2024/02/19 02:27:20;;;;;;;26.40;11.32;;;;;;;6.32;100.00;101201.94;5027915;28;20029;-79
2024/02/19 02:29:46;;;;;;;25.35;12.20;;;;;;;6.28;100.00;101206.72;5027438;28;20418;-79
2024/02/19 02:32:11;;;;;;;23.52;12.30;;;;;;;6.19;100.00;101186.50;5027923;28;20513;-79
2024/02/19 02:34:37;;;;;;;25.45;12.32;;;;;;;6.25;100.00;101188.50;5028481;28;20021;-80
2024/02/19 02:37:02;;;;;;;21.75;11.48;;;;;;;6.30;100.00;101199.44;5027825;28;20033;-79
2024/02/19 02:39:28;;;;;;;22.33;11.90;;;;;;;6.24;100.00;101192.16;5027381;28;20052;-79
2024/02/19 02:41:54;;;;;;;21.60;11.38;;;;;;;6.42;100.00;101203.44;5027557;28;20037;-80
2024/02/19 02:44:19;;;;;;;79.43;38.47;;;;;;;5.99;100.00;101149.72;5028027;28;20033;-80
2024/02/19 02:46:45;;;;;;;37.35;18.98;;;;;;;6.26;100.00;101192.81;5026266;28;20029;-79
2024/02/19 02:49:10;;;;;;;37.80;21.45;;;;;;;6.35;100.00;101180.41;5027497;28;20120;-79
2024/02/19 02:51:36;;;;;;;42.60;24.83;;;;;;;6.39;100.00;101176.44;5027454;28;20167;-81
2024/02/19 02:54:01;;;;;;;45.92;24.17;;;;;;;6.16;100.00;101155.88;5027665;28;20085;-79
2024/02/19 02:56:27;;;;;;;73.78;41.13;;;;;;;6.41;100.00;101185.88;5027875;28;20402;-80
2024/02/19 02:58:52;;;;;;;34.85;18.77;;;;;;;6.24;100.00;101176.25;5027032;28;20033;-79
2024/02/19 03:01:21;;;;;;;110.88;67.78;;;;;;;6.61;100.00;101204.13;5027513;28;20042;-79
2024/02/19 03:03:47;;;;;;;57.35;36.75;;;;;;;6.37;100.00;101184.53;5027134;28;20030;-80
2024/02/19 03:06:13;;;;;;;28.40;17.95;;;;;;;6.33;100.00;101183.19;5025448;28;20025;-79
2024/02/19 03:08:38;;;;;;;25.30;14.88;;;;;;;6.67;100.00;101197.34;5026283;28;20039;-80
2024/02/19 03:11:05;;;;;;;22.52;12.93;;;;;;;6.60;100.00;101163.53;5024375;28;20079;-79
2024/02/19 03:13:31;;;;;;;24.15;11.68;;;;;;;6.55;100.00;101170.31;5027217;28;20075;-80
2024/02/19 03:15:57;;;;;;;30.55;21.75;;;;;;;6.49;100.00;101189.53;5026891;28;20053;-79
2024/02/19 03:18:23;;;;;;;50.88;40.70;;;;;;;6.60;100.00;101168.00;5026983;28;20034;-79
2024/02/19 03:20:49;;;;;;;28.67;16.67;;;;;;;6.59;100.00;101172.47;5027039;28;20450;-79
2024/02/19 03:23:15;;;;;;;23.30;13.07;;;;;;;6.55;100.00;101167.66;5026926;28;20077;-79
2024/02/19 03:25:40;;;;;;;19.83;12.63;;;;;;;6.73;100.00;101184.22;5026682;28;20064;-79
2024/02/19 03:28:06;;;;;;;21.27;12.98;;;;;;;6.72;100.00;101169.34;5026457;28;20025;-80
2024/02/19 03:30:32;;;;;;;23.05;14.02;;;;;;;6.63;100.00;101179.09;5026531;28;20041;-79
2024/02/19 03:32:57;;;;;;;25.00;16.08;;;;;;;6.69;100.00;101193.50;5025830;28;20037;-79
2024/02/19 03:35:23;;;;;;;22.80;12.20;;;;;;;6.73;100.00;101196.66;5025659;28;20030;-80
2024/02/19 03:37:48;;;;;;;19.35;11.65;;;;;;;6.60;100.00;101189.22;5025437;28;20590;-79
2024/02/19 03:40:13;;;;;;;21.02;11.52;;;;;;;6.83;100.00;101187.53;5027251;28;20512;-80
2024/02/19 03:42:39;;;;;;;20.85;11.93;;;;;;;6.52;100.00;101162.69;5026593;28;20032;-80
2024/02/19 03:45:05;;;;;;;20.13;10.93;;;;;;;6.48;100.00;101198.47;5025306;28;20038;-80
2024/02/19 03:47:31;;;;;;;18.73;11.30;;;;;;;6.22;100.00;101162.34;5026328;28;20522;-79
2024/02/19 03:49:57;;;;;;;19.65;11.23;;;;;;;6.48;100.00;101191.34;5026539;28;20060;-79
2024/02/19 03:52:22;;;;;;;19.25;10.82;;;;;;;6.73;100.00;101202.78;5026636;28;20057;-79
2024/02/19 03:54:48;;;;;;;20.02;11.70;;;;;;;6.25;100.00;101185.84;5025410;28;20030;-79
2024/02/19 03:57:14;;;;;;;22.45;12.45;;;;;;;6.27;100.00;101180.38;5026814;28;20442;-79
2024/02/19 03:59:39;;;;;;;23.27;12.32;;;;;;;6.71;100.00;101193.34;5025261;28;20056;-79
2024/02/19 04:02:05;;;;;;;22.88;12.82;;;;;;;6.64;100.00;101209.91;5026790;28;20057;-80
2024/02/19 04:04:30;;;;;;;24.38;13.13;;;;;;;6.57;100.00;101173.63;5026656;28;20026;-79
2024/02/19 04:06:56;;;;;;;25.38;13.07;;;;;;;6.86;100.00;101196.16;5025580;28;20033;-80
2024/02/19 04:09:22;;;;;;;22.33;12.30;;;;;;;6.68;100.00;101198.97;5026852;28;20040;-79
2024/02/19 04:11:47;;;;;;;24.40;13.27;;;;;;;6.70;100.00;101204.94;5027145;28;20662;-79
2024/02/19 04:14:12;;;;;;;24.05;13.15;;;;;;;6.58;100.00;101191.22;5026599;28;20041;-79
2024/02/19 04:16:42;;;;;;;25.65;13.45;;;;;;;6.52;100.00;101158.22;5026816;28;20080;-79
2024/02/19 04:19:07;;;;;;;26.02;15.07;;;;;;;6.54;100.00;101168.66;5026380;28;20026;-79
2024/02/19 04:21:33;;;;;;;36.53;21.60;;;;;;;6.64;100.00;101187.91;5038892;28;20041;-80
2024/02/19 04:23:58;;;;;;;23.70;14.10;;;;;;;6.60;100.00;101194.53;5026168;28;20049;-80
2024/02/19 04:26:23;;;;;;;26.30;13.07;;;;;;;6.58;100.00;101175.31;5026204;28;20053;-79
2024/02/19 04:28:49;;;;;;;26.42;14.30;;;;;;;6.65;100.00;101189.53;5026115;28;20041;-79
2024/02/19 04:31:14;;;;;;;31.15;16.23;;;;;;;6.63;100.00;101172.97;5026242;28;20030;-80
2024/02/19 04:33:43;;;;;;;40.63;21.70;;;;;;;6.90;100.00;101194.84;5025143;28;20133;-80
2024/02/19 04:36:09;;;;;;;37.10;19.77;;;;;;;6.77;100.00;101180.25;5026511;28;20033;-80
2024/02/19 04:38:34;;;;;;;34.83;17.95;;;;;;;6.81;100.00;101181.59;5025949;28;20032;-80
2024/02/19 04:41:00;;;;;;;29.95;14.93;;;;;;;6.67;100.00;101168.16;5024990;28;20040;-80
2024/02/19 04:43:25;;;;;;;26.98;15.43;;;;;;;6.96;100.00;101194.16;5038822;28;20040;-80
2024/02/19 04:45:50;;;;;;;33.13;19.83;;;;;;;6.84;100.00;101186.56;5046299;28;20033;-79
2024/02/19 04:48:16;;;;;;;45.33;24.15;;;;;;;6.99;100.00;101199.16;5042685;28;20171;-79
2024/02/19 04:50:41;;;;;;;36.78;20.83;;;;;;;6.77;100.00;101169.66;5028425;28;20029;-80
2024/02/19 04:53:06;;;;;;;38.10;20.98;;;;;;;7.05;100.00;101206.44;5043993;28;20033;-80
2024/02/19 04:55:32;;;;;;;32.95;18.58;;;;;;;7.11;100.00;101208.41;5046863;28;20033;-80
2024/02/19 04:57:57;;;;;;;27.20;15.25;;;;;;;7.06;100.00;101183.38;5048186;28;20032;-80
2024/02/19 05:00:23;;;;;;;25.65;14.07;;;;;;;7.05;100.00;101190.53;5033832;28;20043;-81
2024/02/19 05:02:48;;;;;;;26.92;13.90;;;;;;;7.24;100.00;101198.09;5028608;28;20485;-79
2024/02/19 05:05:14;;;;;;;29.88;15.43;;;;;;;6.99;100.00;101188.53;5029603;28;20721;-79
2024/02/19 05:07:39;;;;;;;27.70;15.10;;;;;;;7.06;100.00;101199.31;5029497;28;20034;-80
2024/02/19 05:10:07;;;;;;;47.08;25.55;;;;;;;7.08;100.00;101208.75;5027821;28;20418;-79
2024/02/19 05:12:32;;;;;;;49.35;22.10;;;;;;;6.80;100.00;101179.94;5032271;28;20033;-80
2024/02/19 05:14:57;;;;;;;36.45;18.27;;;;;;;6.72;100.00;101185.25;5029361;28;20084;-79
2024/02/19 05:17:23;;;;;;;53.33;27.67;;;;;;;6.72;100.00;101187.91;5029297;28;20028;-80
2024/02/19 05:19:49;;;;;;;32.25;18.08;;;;;;;6.88;100.00;101202.13;5029061;28;20541;-78
2024/02/19 05:22:14;;;;;;;25.92;14.57;;;;;;;6.90;100.00;101205.44;5040147;28;20021;-80
2024/02/19 05:24:45;;;;;;;25.75;12.43;;;;;;;6.89;100.00;101196.66;5027994;28;20044;-80
2024/02/19 05:27:10;;;;;;;25.15;13.63;;;;;;;6.80;100.00;101211.75;5029648;28;20025;-80
2024/02/19 05:29:36;;;;;;;29.40;14.27;;;;;;;7.02;100.00;101215.53;5027664;28;20179;-78
2024/02/19 05:32:01;;;;;;;33.80;19.50;;;;;;;6.92;100.00;101206.91;5028863;28;20029;-79
2024/02/19 05:34:26;;;;;;;31.45;18.25;;;;;;;6.87;100.00;101206.59;5028906;28;20112;-79
2024/02/19 05:36:52;;;;;;;30.45;17.52;;;;;;;7.08;100.00;101210.56;5028958;28;20407;-79
2024/02/19 05:39:17;;;;;;;41.38;22.85;;;;;;;7.08;100.00;101203.44;5028692;28;20029;-79
2024/02/19 05:41:43;;;;;;;37.17;23.35;;;;;;;6.95;100.00;101224.34;5027681;28;20033;-80
2024/02/19 05:44:09;;;;;;;52.42;36.90;;;;;;;7.00;100.00;101206.09;5028530;28;20052;-79
2024/02/19 05:46:35;;;;;;;29.30;17.15;;;;;;;6.91;100.00;101213.25;5028677;28;20029;-80
2024/02/19 05:49:00;;;;;;;70.30;41.78;;;;;;;7.22;100.00;101231.09;5028461;28;20466;-80
2024/02/19 05:51:27;;;;;;;42.72;25.40;;;;;;;7.00;100.00;101227.31;5027532;28;20038;-79
2024/02/19 05:53:53;;;;;;;210.45;124.05;;;;;;;6.88;100.00;101212.72;5028238;28;20035;-79
2024/02/19 05:56:19;;;;;;;50.17;32.03;;;;;;;6.88;100.00;101187.03;5028814;28;20025;-79
2024/02/19 05:58:46;;;;;;;49.63;40.25;;;;;;;7.01;100.00;101218.38;5028244;28;20029;-79
2024/02/19 06:01:12;;;;;;;43.28;35.88;;;;;;;7.23;100.00;101211.53;5028348;28;20034;-79
2024/02/19 06:03:38;;;;;;;34.65;23.67;;;;;;;7.11;100.00;101211.06;5028566;28;20064;-79
2024/02/19 06:06:03;;;;;;;36.53;28.13;;;;;;;7.20;100.00;101198.63;5027909;28;20053;-79
2024/02/19 06:08:29;;;;;;;40.10;25.77;;;;;;;7.42;100.00;101236.88;5028552;28;20037;-79
2024/02/19 06:10:55;;;;;;;45.33;32.92;;;;;;;7.53;100.00;101222.41;5028336;28;20047;-78
2024/02/19 06:13:21;;;;;;;41.58;26.58;;;;;;;7.67;100.00;101242.13;5027984;28;20033;-79
2024/02/19 06:15:46;;;;;;;28.50;16.00;;;;;;;7.28;100.00;101197.78;5027983;28;20569;-79
2024/02/19 06:18:12;;;;;;;32.03;18.38;;;;;;;7.64;100.00;101245.94;5028317;28;20130;-79
2024/02/19 06:20:39;;;;;;;53.25;28.42;;;;;;;7.40;100.00;101207.03;5028013;28;20033;-79
2024/02/19 06:23:04;;;;;;;68.57;40.75;;;;;;;7.73;100.00;101241.44;5027968;28;20542;-78
2024/02/19 06:25:30;;;;;;;40.20;22.27;;;;;;;7.61;100.00;101228.53;5027775;28;20117;-80
2024/02/19 06:27:55;;;;;;;34.15;18.70;;;;;;;7.60;100.00;101229.53;5027554;28;20018;-79
2024/02/19 06:30:21;;;;;;;55.50;31.42;;;;;;;7.63;100.00;101237.16;5026712;28;20414;-79
2024/02/19 06:32:48;;;;;;;42.25;23.17;;;;;;;7.74;100.00;101227.97;5027701;28;20112;-79
2024/02/19 06:35:13;;;;;;;53.63;31.95;;;;;;;7.74;100.00;101225.31;5034123;28;20170;-78
2024/02/19 06:37:39;;;;;;;30.50;19.08;;;;;;;7.76;100.00;101233.94;5033783;28;20022;-79
2024/02/19 06:40:06;;;;;;;37.60;24.17;;;;;;;8.07;100.00;101234.97;5035254;28;20119;-79
2024/02/19 06:42:32;;;;;;;31.65;16.33;;;;;;;7.66;100.00;101201.44;5038408;28;20017;-81
2024/02/19 06:44:57;;;;;;;31.05;18.48;;;;;;;7.64;100.00;101230.84;5038282;28;20040;-79
2024/02/19 06:47:22;;;;;;;31.40;20.33;;;;;;;7.49;100.00;101211.31;5037529;28;20029;-80
2024/02/19 06:49:48;;;;;;;28.88;15.15;;;;;;;7.43;100.00;101209.34;5038328;28;20037;-80
2024/02/19 06:52:13;;;;;;;40.85;31.50;;;;;;;7.51;100.00;101227.06;5037536;28;20026;-78
2024/02/19 06:54:39;;;;;;;37.15;19.85;;;;;;;7.46;100.00;101238.19;5029836;28;20539;-79
2024/02/19 06:57:04;;;;;;;36.65;21.75;;;;;;;7.53;100.00;101244.47;5025911;28;20566;-78
2024/02/19 06:59:30;;;;;;;29.23;18.48;;;;;;;7.54;100.00;101235.53;5038201;28;20032;-79
2024/02/19 07:01:56;;;;;;;31.15;16.52;;;;;;;7.60;100.00;101248.13;5046746;28;20028;-79
2024/02/19 07:04:22;;;;;;;28.65;17.90;;;;;;;7.48;100.00;101236.22;5031660;28;20037;-79
2024/02/19 07:06:47;;;;;;;31.83;17.50;;;;;;;7.41;100.00;101240.53;5047374;28;20104;-78
2024/02/19 07:09:13;;;;;;;36.92;21.02;;;;;;;7.30;100.00;101217.00;5038796;28;20029;-79
2024/02/19 07:11:38;;;;;;;26.23;13.98;;;;;;;7.20;100.00;101196.78;5035585;28;20575;-79
2024/02/19 07:14:04;;;;;;;40.10;20.67;;;;;;;7.41;100.00;101228.06;5032910;28;20060;-79
2024/02/19 07:16:29;;;;;;;45.53;35.92;;;;;;;7.44;100.00;101229.59;5027049;28;20079;-79
2024/02/19 07:18:54;;;;;;;51.75;30.38;;;;;;;7.53;100.00;101228.53;5025038;28;20025;-79
2024/02/19 07:21:20;;;;;;;47.70;25.30;;;;;;;7.42;100.00;101197.06;5026834;28;20041;-79
2024/02/19 07:23:46;;;;;;;41.13;20.75;;;;;;;7.71;100.00;101230.16;5027383;28;20482;-79
2024/02/19 07:26:12;;;;;;;57.15;32.03;;;;;;;7.77;100.00;101213.53;5027041;28;20403;-79
2024/02/19 07:28:37;;;;;;;40.28;19.90;;;;;;;7.80;100.00;101240.56;5026902;28;20033;-79
2024/02/19 07:31:03;;;;;;;55.88;24.58;;;;;;;7.79;100.00;101198.28;5026898;28;20026;-79
2024/02/19 07:33:28;;;;;;;70.00;28.02;;;;;;;7.85;100.00;101216.16;5026778;28;20030;-78
2024/02/19 07:35:53;;;;;;;40.13;21.88;;;;;;;7.91;100.00;101199.53;5035682;28;20104;-79
2024/02/19 07:38:20;;;;;;;33.35;17.50;;;;;;;7.92;100.00;101206.50;5045915;28;20033;-79
2024/02/19 07:40:46;;;;;;;56.95;35.03;;;;;;;7.94;100.00;101215.13;5027155;28;20048;-78
2024/02/19 07:43:12;;;;;;;27.63;14.45;;;;;;;8.03;100.00;101219.41;5027244;28;20090;-79
2024/02/19 07:45:38;;;;;;;25.55;13.88;;;;;;;7.80;100.00;101197.25;5025681;28;20037;-80
2024/02/19 07:48:06;;;;;;;29.88;16.00;;;;;;;7.73;100.00;101194.47;5025777;28;20041;-80
2024/02/19 07:50:32;;;;;;;24.17;15.17;;;;;;;7.69;100.00;101184.38;5027129;28;20083;-79
2024/02/19 07:52:58;;;;;;;26.52;14.88;;;;;;;7.69;100.00;101210.94;5027226;28;20365;-79
2024/02/19 07:55:25;;;;;;;22.58;12.10;;;;;;;7.83;100.00;101218.16;5027094;28;20752;-79
2024/02/19 07:57:50;;;;;;;24.05;14.02;;;;;;;7.82;100.00;101203.22;5027069;28;20029;-78
2024/02/19 08:00:17;;;;;;;28.00;14.93;;;;;;;7.77;100.00;101182.50;5027101;28;20422;-80
2024/02/19 08:02:42;;;;;;;27.98;15.48;;;;;;;7.85;100.00;101192.28;5027756;28;20025;-80
2024/02/19 08:05:07;;;;;;;29.10;14.95;;;;;;;7.70;100.00;101199.28;5031421;28;20453;-79
2024/02/19 08:07:33;;;;;;;25.77;15.02;;;;;;;7.63;100.00;101176.09;5026799;28;20471;-80
2024/02/19 08:09:58;;;;;;;29.20;18.10;;;;;;;8.07;100.00;101221.69;5026532;28;20477;-79
2024/02/19 08:12:24;;;;;;;24.05;13.98;;;;;;;8.07;100.00;101224.34;5038043;28;20025;-80
2024/02/19 08:14:50;;;;;;;23.52;13.23;;;;;;;7.92;100.00;101206.50;5037242;28;20485;-79
2024/02/19 08:17:17;;;;;;;26.30;15.18;;;;;;;8.17;100.00;101219.66;5027016;28;20391;-79
2024/02/19 08:19:43;;;;;;;21.73;11.77;;;;;;;8.01;100.00;101226.72;5017312;28;20273;-79
2024/02/19 08:22:08;;;;;;;25.67;14.70;;;;;;;8.06;100.00;101199.63;5027093;28;20370;-80
2024/02/19 08:24:36;;;;;;;23.23;13.15;;;;;;;7.98;100.00;101189.03;5045817;28;20064;-80
2024/02/19 08:27:01;;;;;;;26.55;14.13;;;;;;;8.30;100.00;101211.94;5042457;28;20037;-80
2024/02/19 08:29:28;;;;;;;23.58;12.52;;;;;;;8.51;100.00;101199.88;5035533;28;20034;-80
2024/02/19 08:31:54;;;;;;;24.77;13.05;;;;;;;8.52;100.00;101201.50;5032271;28;20025;-79
2024/02/19 08:34:19;;;;;;;24.02;12.98;;;;;;;8.12;100.00;101179.50;5031599;28;20099;-79
2024/02/19 08:36:45;;;;;;;23.63;12.85;;;;;;;8.44;100.00;101210.41;5038975;28;20051;-80
2024/02/19 08:39:10;;;;;;;21.25;12.55;;;;;;;8.26;100.00;101192.03;5035075;28;20036;-79
2024/02/19 08:41:36;;;;;;;22.67;13.73;;;;;;;8.37;100.00;101218.19;5018830;28;20033;-78
2024/02/19 08:44:01;;;;;;;25.90;14.57;;;;;;;8.18;100.00;101206.19;5042485;28;20025;-78
2024/02/19 08:46:26;;;;;;;22.85;11.52;;;;;;;8.35;100.00;101198.94;5041933;28;20028;-79
2024/02/19 08:48:53;;;;;;;27.83;14.88;;;;;;;8.62;100.00;101186.16;5045325;28;20065;-79
2024/02/19 08:51:20;;;;;;;21.83;12.25;;;;;;;8.49;100.00;101175.31;5047471;28;20021;-78
2024/02/19 08:53:45;;;;;;;22.42;12.25;;;;;;;8.86;100.00;101195.75;5044059;28;20028;-79
2024/02/19 08:56:11;;;;;;;19.02;10.43;;;;;;;8.74;100.00;101211.31;5046303;28;20037;-78
2024/02/19 08:58:36;;;;;;;23.95;12.70;;;;;;;8.61;99.86;101165.91;5042835;28;20032;-79
2024/02/19 09:01:02;;;;;;;26.85;12.70;;;;;;;9.01;98.87;101201.09;5039839;28;20027;-78
2024/02/19 09:03:28;;;;;;;22.92;12.15;;;;;;;9.17;97.22;101208.13;5032869;28;20033;-79
2024/02/19 09:05:53;;;;;;;30.10;16.77;;;;;;;9.40;96.30;101200.09;5029191;28;20107;-79
2024/02/19 09:08:19;;;;;;;51.90;24.77;;;;;;;9.02;97.00;101177.00;5031044;28;20029;-80
2024/02/19 09:10:44;;;;;;;27.58;13.70;;;;;;;8.91;98.72;101189.91;5030768;28;20375;-79
2024/02/19 09:13:10;;;;;;;34.35;18.13;;;;;;;8.80;98.67;101170.69;5030648;28;20033;-79
2024/02/19 09:15:35;;;;;;;35.63;24.27;;;;;;;8.80;100.00;101189.31;5032931;28;20049;-79
2024/02/19 09:18:01;;;;;;;37.13;23.35;;;;;;;9.07;98.67;101189.75;5033250;28;20033;-78
2024/02/19 09:20:26;;;;;;;31.30;17.42;;;;;;;8.79;100.00;101206.31;5029988;28;20037;-79
2024/02/19 09:22:52;;;;;;;29.00;15.68;;;;;;;8.92;100.00;101199.53;5038807;28;20058;-80
2024/02/19 09:25:18;;;;;;;25.50;14.13;;;;;;;9.00;100.00;101183.50;5033899;28;20116;-79
2024/02/19 09:27:44;;;;;;;27.33;16.48;;;;;;;9.08;97.51;101188.75;5024630;28;20088;-79
2024/02/19 09:30:09;;;;;;;25.38;14.43;;;;;;;9.19;98.82;101206.09;5022688;28;20041;-79
2024/02/19 09:32:35;;;;;;;24.40;13.57;;;;;;;9.23;96.72;101200.25;5031154;28;20037;-79
2024/02/19 09:35:05;;;;;;;24.65;13.88;;;;;;;9.32;93.59;101181.53;5040121;28;20111;-80
2024/02/19 09:37:31;;;;;;;24.48;13.20;;;;;;;9.48;93.69;101207.97;5038333;28;20506;-80
2024/02/19 09:39:59;;;;;;;25.25;12.93;;;;;;;9.63;92.67;101194.66;5035098;28;20061;-80
2024/02/19 09:42:28;;;;;;;24.75;14.27;;;;;;;9.08;95.26;101190.59;5035850;28;20116;-80
2024/02/19 09:44:53;;;;;;;25.77;14.07;;;;;;;9.13;93.06;101157.09;5029548;28;20120;-78
2024/02/19 09:47:20;;;;;;;26.40;15.82;;;;;;;9.72;90.38;101187.38;5028714;28;20056;-79
2024/02/19 09:49:49;;;;;;;25.38;12.27;;;;;;;9.72;92.14;101182.06;5028821;28;20127;-78
2024/02/19 09:52:24;;;;;;;21.75;10.80;;;;;;;9.77;90.39;101198.31;5028607;28;20104;-78
2024/02/19 09:54:50;;;;;;;25.08;13.30;;;;;;;10.20;88.27;101195.75;5020772;28;20040;-77
2024/02/19 09:57:18;;;;;;;64.82;45.20;;;;;;;10.04;87.40;101191.47;5033303;28;20033;-78
2024/02/19 09:59:45;;;;;;;24.25;11.95;;;;;;;9.83;86.16;101169.09;5041929;28;20052;-77
2024/02/19 10:02:11;;;;;;;23.95;11.38;;;;;;;10.00;86.64;101196.34;5028496;28;20033;-78
2024/02/19 10:04:38;;;;;;;21.40;12.80;;;;;;;9.64;88.46;101172.31;5027903;28;20029;-77
2024/02/19 10:07:03;;;;;;;25.13;12.52;;;;;;;10.21;86.29;101192.06;5029055;28;20036;-76
2024/02/19 10:09:29;;;;;;;21.65;11.57;;;;;;;9.81;85.70;101171.13;5043990;28;20032;-77
2024/02/19 10:11:58;;;;;;;22.52;11.90;;;;;;;9.71;87.29;101148.44;5028350;28;20029;-76
2024/02/19 10:14:24;;;;;;;20.17;10.68;;;;;;;9.93;85.88;101167.94;5027016;28;20047;-77
2024/02/19 10:16:53;;;;;;;18.73;10.52;;;;;;;9.75;86.81;101168.38;5026378;28;20780;-78
2024/02/19 10:19:19;;;;;;;24.23;12.18;;;;;;;9.79;86.33;101151.81;5026683;28;20026;-77
2024/02/19 10:21:51;;;;;;;21.98;11.65;;;;;;;9.98;86.51;101177.03;5026860;28;20033;-78
2024/02/19 10:24:17;;;;;;;26.20;13.23;;;;;;;9.67;88.30;101171.97;5026886;28;20101;-77
2024/02/19 10:26:47;;;;;;;20.27;11.05;;;;;;;10.14;84.64;101159.19;5026455;28;20029;-77
2024/02/19 10:29:13;;;;;;;30.05;18.05;;;;;;;10.20;81.80;101137.09;5028199;28;20128;-77
2024/02/19 10:31:40;;;;;;;27.95;16.20;;;;;;;10.35;81.01;101145.88;5026634;28;20116;-77
2024/02/19 10:34:05;;;;;;;24.65;13.80;;;;;;;9.89;82.16;101137.38;5026801;28;20605;-77
2024/02/19 10:36:32;;;;;;;23.67;13.82;;;;;;;9.76;83.16;101096.25;5028106;28;20140;-77
2024/02/19 10:38:58;;;;;;;20.20;9.98;;;;;;;10.24;80.47;101149.03;5027935;28;20033;-77
2024/02/19 10:41:24;;;;;;;20.58;10.10;;;;;;;10.06;82.22;101131.63;5027586;28;20033;-78
2024/02/19 10:43:53;;;;;;;17.88;9.90;;;;;;;10.13;83.09;101130.84;5028031;28;20026;-78
2024/02/19 10:46:23;;;;;;;17.90;9.32;;;;;;;10.10;82.91;101121.41;5027704;28;20038;-78
2024/02/19 10:48:51;;;;;;;23.10;13.45;;;;;;;10.23;82.39;101131.38;5027829;28;20414;-77
2024/02/19 10:51:23;;;;;;;22.02;13.38;;;;;;;9.90;85.22;101115.88;5027712;28;20114;-77
2024/02/19 10:54:01;;;;;;;22.13;12.75;;;;;;;10.35;84.34;101113.88;5027509;28;20034;-77
2024/02/19 10:56:35;;;;;;;48.97;25.15;;;;;;;10.49;82.34;101114.81;5028008;28;20077;-77
2024/02/19 10:59:01;;;;;;;18.80;10.43;;;;;;;10.19;83.79;101122.09;5018400;28;20032;-77
2024/02/19 11:01:49;;;;;;;25.48;15.07;;;;;;;10.24;81.57;101125.03;5027553;28;20033;-77
2024/02/19 11:04:22;;;;;;;22.30;11.73;;;;;;;10.48;80.04;101112.34;5027349;28;20065;-78